Latest Weather Observations for Bradshaw

IDD60801

Issued at 7:03 pm CST Sunday 21 December 2014 (issued every 30 minutes, with the page automatically refreshed every 10 minutes)

About weather observations | Map of weather stations | Latest weather observations for NT | Other Formats
Station Details ID: 014954 Name: BRADSHAW Lat: -14.94 Lon: 130.81 Height: 75.0 m
Data from the previous 72 hours. | See also: Recent months at Bradshaw
Date/Time
CST
Temp
°C
App
Temp
°C
Dew
Point
Rel
Hum
%
Delta-T
°C
Wind Press
QNH
hPa
Press
MSL
hPa
Rain
since 9 am
mm
Dir
 
Spd
km/h
Gust
km/h
Spd
kts
Gust
kts
21/07:00pm 27.5 30.7 23.1 77 3.0 WSW 11 17 6 9 1007.1 - 5.2
21/06:30pm 27.4 30.7 24.5 84 2.0 SW 15 30 8 16 1007.3 - 5.2
21/06:00pm 28.2 32.3 24.6 81 2.5 SSE 11 17 6 9 1006.3 1005.8 5.2
21/05:30pm 29.4 28.8 23.3 69 4.2 E 32 46 17 25 1005.5 - 5.2
21/05:28pm 30.6 30.6 23.8 67 4.7 E 30 44 16 24 1005.6 - 5.2
21/05:00pm 31.3 34.7 24.7 68 4.7 WSW 15 22 8 12 1004.1 - 5.2
21/04:42pm 32.6 34.9 24.4 62 5.8 NW 20 33 11 18 1004.3 - 2.4
21/04:30pm 37.6 39.0 23.6 44 9.9 WNW 22 33 12 18 1004.0 - 0.2
21/04:00pm 38.6 40.3 21.7 37 11.7 WNW 15 24 8 13 1004.4 - 0.2
21/03:30pm 38.7 41.2 21.8 37 11.7 NNW 11 24 6 13 1004.7 - 0.2
21/03:00pm 38.6 41.7 22.2 39 11.4 NW 9 20 5 11 1005.3 1004.8 0.2
21/02:30pm 37.7 41.0 21.8 40 11.0 NNE 7 11 4 6 1005.7 - 0.2
21/02:00pm 36.3 39.3 21.3 41 10.2 NE 7 15 4 8 1006.5 - 0.2
21/01:30pm 36.6 39.6 22.0 43 10.1 WNW 9 15 5 8 1007.5 - 0.2
21/01:00pm 36.3 40.0 22.5 45 9.6 N 7 11 4 6 1008.4 - 0.2
21/12:30pm 35.7 39.0 22.6 46 9.1 W 9 19 5 10 1008.9 - 0.2
21/12:00pm 35.4 39.3 23.0 48 8.6 E 7 11 4 6 1009.3 1008.7 0.2
21/11:30am 34.6 38.5 22.6 49 8.3 NE 6 15 3 8 1009.8 - 0.2
21/11:00am 34.3 38.4 23.3 52 7.7 W 7 11 4 6 1010.1 - 0.2
21/10:30am 32.2 36.6 23.4 59 6.1 N 6 11 3 6 1010.4 - 0.0
21/10:00am 31.2 34.9 23.3 63 5.5 N 9 13 5 7 1010.5 - 0.0
21/09:30am 31.0 34.9 23.6 64 5.1 N 9 13 5 7 1010.6 - 0.0
21/09:00am 31.1 34.9 23.5 64 5.3 N 9 17 5 9 1010.6 1010.0 0.0
21/08:30am 29.3 32.8 23.5 71 4.0 NNW 11 15 6 8 1010.3 - 0.0
21/08:00am 28.3 32.4 23.2 74 3.5 NNW 7 11 4 6 1010.1 - 0.0
21/07:30am 27.9 32.1 23.5 77 3.0 NW 7 9 4 5 1009.9 - 0.0
21/07:00am 27.5 30.7 23.1 77 3.0 NNW 11 15 6 8 1009.4 - 0.0
21/06:30am 27.1 29.8 22.9 78 2.9 N 13 20 7 11 1008.8 - 0.0
21/06:00am 27.3 30.7 22.7 76 3.1 NNE 9 13 5 7 1008.6 1008.0 0.0
21/05:30am 27.2 31.1 23.0 78 2.9 N 7 9 4 5 1008.9 - 0.0
21/05:00am 26.9 28.6 23.4 81 2.4 ENE 20 30 11 16 1008.6 - 0.0
21/04:30am 26.5 31.9 23.2 82 2.3 CALM 0 0 0 0 1007.9 - 0.0
21/04:00am 26.5 30.5 22.8 80 2.5 NNW 6 7 3 4 1007.6 - 0.0
21/03:30am 26.4 32.0 23.5 84 2.0 CALM 0 0 0 0 1007.5 - 0.0
21/03:00am 26.3 30.7 23.4 84 2.0 NE 6 9 3 5 1007.7 1007.1 0.0
21/02:30am 26.0 31.2 22.9 83 2.1 CALM 0 6 0 3 1007.6 - 0.0
21/02:00am 25.8 29.3 22.9 84 2.0 NNW 9 13 5 7 1007.9 - 0.0
21/01:30am 26.1 29.1 22.6 81 2.4 NNW 11 15 6 8 1008.0 - 0.0
21/01:00am 26.3 29.8 22.8 81 2.4 NNW 9 13 5 7 1008.4 - 0.0
21/12:30am 26.2 29.1 22.5 80 2.5 N 11 17 6 9 1009.1 - 0.0
21/12:00am 26.7 29.4 22.8 79 2.7 N 13 22 7 12 1009.5 1008.9 0.0
 
Date/Time
CST
Temp
°C
App
Temp
°C
Dew
Point
Rel
Hum
%
Delta-T
°C
Wind Press
QNH
hPa
Press
MSL
hPa
Rain
since 9 am
mm
Dir
 
Spd
km/h
Gust
km/h
Spd
kts
Gust
kts
20/11:30pm 27.6 33.3 23.8 80 2.6 CALM 0 0 0 0 1009.4 - 0.0
20/11:00pm 27.7 33.6 24.1 81 2.5 CALM 0 6 0 3 1009.4 - 0.0
20/10:30pm 27.4 31.8 23.4 79 2.7 SSE 6 11 3 6 1009.3 - 0.0
20/10:00pm 27.4 32.8 23.2 78 2.9 CALM 0 6 0 3 1008.9 - 0.0
20/09:30pm 27.0 28.6 23.3 80 2.5 NW 20 32 11 17 1008.5 - 0.0
20/09:00pm 28.6 29.1 23.3 73 3.6 NNW 26 41 14 22 1008.9 1008.3 0.0
20/08:30pm 28.8 29.6 23.2 71 3.8 N 24 37 13 20 1008.4 - 0.0
20/08:00pm 30.1 32.6 21.7 60 5.7 SSW 11 19 6 10 1007.5 - 0.0
20/07:30pm 30.8 28.7 21.0 56 6.6 E 33 50 18 27 1007.2 - 0.0
20/07:15pm 32.6 30.6 21.8 53 7.3 E 35 56 19 30 1006.7 - 0.0
20/07:14pm 33.3 31.8 22.1 52 7.7 E 33 44 18 24 1006.9 - 0.0
20/07:00pm 35.5 39.3 22.8 47 8.8 ENE 7 11 4 6 1006.2 - 0.0
20/06:30pm 36.0 38.5 22.5 45 9.3 ESE 13 19 7 10 1005.0 - 0.0
20/06:00pm 36.7 38.1 18.7 34 11.9 SE 9 17 5 9 1005.0 1004.5 0.0
20/05:30pm 36.8 39.2 22.2 43 10.1 S 13 30 7 16 1005.1 - 0.0
20/05:00pm 37.9 41.7 22.8 42 10.5 SE 7 11 4 6 1004.7 - 0.0
20/04:30pm 37.1 40.3 21.6 40 10.6 NE 7 13 4 7 1004.9 - 0.0
20/04:00pm 37.7 41.6 22.6 42 10.5 ESE 6 15 3 8 1005.2 - 0.0
20/03:30pm 37.1 40.1 22.0 41 10.4 ENE 9 15 5 8 1005.8 - 0.0
20/03:00pm 36.2 39.1 22.4 45 9.6 S 11 15 6 8 1006.3 1005.8 0.0
20/02:30pm 36.8 39.5 22.2 43 10.1 ESE 11 17 6 9 1007.1 - 0.0
20/02:00pm 36.0 39.1 22.2 45 9.5 SSE 9 15 5 8 1007.8 - 0.0
20/01:30pm 35.5 38.6 22.1 45 9.2 ESE 9 17 5 9 1008.4 - 0.0
20/01:00pm 34.2 36.4 22.6 50 8.0 SE 15 20 8 11 1008.9 - 0.0
20/12:30pm 35.7 37.8 23.7 50 8.4 ENE 19 20 10 11 1009.3 - 0.0
20/12:00pm 35.0 39.3 24.3 54 7.6 SSE 9 17 5 9 1010.0 1009.4 0.0
20/11:30am 33.4 37.0 23.1 54 7.1 S 9 15 5 8 1010.6 - 0.0
20/11:00am 32.2 36.1 22.6 57 6.6 S 6 11 3 6 1011.3 - 0.0
20/10:30am 32.4 37.3 23.1 58 6.4 SSE 2 9 1 5 1011.5 - 0.0
20/10:00am 31.4 35.5 23.2 61 5.7 NNW 7 11 4 6 1011.7 - 0.0
20/09:30am 29.5 34.3 24.1 72 3.8 NE 6 7 3 4 1011.8 - 0.0
20/09:00am 28.5 33.4 23.6 75 3.4 E 4 7 2 4 1011.6 1011.0 0.4
20/08:30am 28.0 32.5 23.6 77 3.0 NNW 6 7 3 4 1011.3 - 0.4
20/08:00am 27.6 32.0 24.4 83 2.2 NNW 9 13 5 7 1011.3 - 0.4
20/07:30am 27.1 30.9 24.0 83 2.1 N 11 15 6 8 1011.3 - 0.4
20/07:00am 26.7 31.2 24.0 85 1.9 N 7 13 4 7 1011.1 - 0.4
20/06:30am 26.0 30.6 24.2 90 1.2 NE 7 9 4 5 1010.9 - 0.4
20/06:00am 25.9 30.4 23.9 89 1.4 W 7 11 4 6 1010.5 1009.9 0.4
20/05:30am 25.7 31.6 24.1 91 1.1 CALM 0 6 0 3 1010.4 - 0.4
20/05:00am 25.8 29.8 23.8 89 1.4 WSW 9 11 5 6 1009.7 - 0.4
20/04:30am 26.1 30.4 24.3 90 1.2 WSW 9 11 5 6 1010.3 - 0.4
20/04:00am 26.2 31.0 24.2 89 1.4 NNE 6 9 3 5 1010.7 - 0.4
20/03:30am 26.2 29.3 24.2 89 1.4 SE 15 20 8 11 1010.5 - 0.4
20/03:00am 26.3 32.4 24.5 90 1.3 CALM 0 0 0 0 1009.8 1009.2 0.4
20/02:30am 26.0 31.2 24.2 90 1.2 E 4 9 2 5 1009.7 - 0.4
20/02:00am 25.9 31.7 23.9 89 1.4 CALM 0 0 0 0 1009.2 - 0.4
20/01:30am 26.0 31.7 23.7 87 1.6 CALM 0 0 0 0 1009.5 - 0.4
20/01:00am 25.8 30.1 23.7 88 1.4 WNW 7 11 4 6 1009.9 - 0.4
20/12:30am 25.6 29.7 24.0 91 1.1 SW 9 13 5 7 1010.8 - 0.4
20/12:00am 25.4 28.9 24.2 93 0.8 WSW 13 17 7 9 1011.4 1010.8 0.4
 
Date/Time
CST
Temp
°C
App
Temp
°C
Dew
Point
Rel
Hum
%
Delta-T
°C
Wind Press
QNH
hPa
Press
MSL
hPa
Rain
since 9 am
mm
Dir
 
Spd
km/h
Gust
km/h
Spd
kts
Gust
kts
19/11:30pm 25.4 29.4 24.4 94 0.7 SW 11 17 6 9 1011.6 - 0.4
19/11:00pm 25.6 28.5 23.8 90 1.2 S 15 24 8 13 1012.0 - 0.4
19/10:30pm 26.5 28.7 23.2 82 2.3 SW 17 22 9 12 1012.2 - 0.0
19/10:00pm 26.9 29.2 22.7 78 2.9 SW 15 20 8 11 1012.1 - 0.0
19/09:30pm 28.3 29.0 22.3 70 4.1 S 22 30 12 16 1012.7 - 0.0
19/09:27pm 29.1 30.9 22.6 68 4.4 SSE 17 22 9 12 1012.8 - 0.0
19/09:00pm 29.4 30.4 22.1 65 4.9 SE 20 32 11 17 1010.8 1010.2 0.0
19/08:30pm 30.0 32.7 22.2 63 5.3 E 11 17 6 9 1010.5 - 0.0
19/08:00pm 29.6 31.1 21.3 61 5.6 NNE 15 24 8 13 1009.9 - 0.0
19/07:30pm 31.1 33.4 19.8 51 7.5 NNE 7 20 4 11 1009.1 - 0.0
19/07:00pm 31.6 32.9 20.2 50 7.6 N 13 17 7 9 1008.2 - 0.0
19/06:30pm 31.2 33.5 19.9 51 7.5 N 7 11 4 6 1007.9 - 0.0
19/06:00pm 29.8 30.3 20.1 56 6.4 ENE 17 20 9 11 1007.0 1006.4 0.0
19/05:30pm 29.8 28.3 20.9 59 5.9 N 30 65 16 35 1006.5 - 0.0
19/05:08pm 33.4 27.8 21.2 48 8.3 NNE 52 70 28 38 1007.2 - 0.0
19/05:07pm 34.1 33.1 21.2 47 8.7 N 28 70 15 38 1007.2 - 0.0
19/05:00pm 35.9 36.3 22.5 46 9.3 NNW 24 35 13 19 1006.2 - 0.0
19/04:30pm 39.3 41.4 21.0 34 12.5 W 11 17 6 9 1005.7 - 0.0
19/04:00pm 39.2 41.5 21.4 35 12.2 SW 11 20 6 11 1005.7 - 0.0
19/03:30pm 39.4 41.4 21.5 35 12.3 SSW 13 17 7 9 1006.1 - 0.0
19/03:00pm 38.6 41.5 21.7 37 11.7 SW 9 15 5 8 1006.9 1006.3 0.0
19/02:30pm 38.3 40.8 21.0 36 11.8 SSW 9 13 5 7 1007.6 - 0.0
19/02:00pm 37.8 41.6 22.7 42 10.5 SE 7 11 4 6 1008.4 - 0.0
19/01:30pm 36.6 40.2 22.4 44 9.8 ESE 7 15 4 8 1009.2 - 0.0
19/01:00pm 36.6 40.0 23.4 46 9.2 NW 11 19 6 10 1009.8 - 0.0
19/12:30pm 36.1 39.8 23.3 47 8.9 S 9 15 5 8 1010.4 - 0.0
19/12:00pm 35.2 39.0 23.5 50 8.2 WSW 9 19 5 10 1010.7 1010.1 0.0
19/11:30am 34.5 38.2 23.2 51 7.9 SSW 9 15 5 8 1011.2 - 0.0
19/11:00am 34.6 38.9 24.2 54 7.3 SW 9 15 5 8 1011.6 - 0.0
19/10:30am 33.6 36.9 23.9 57 6.8 SW 13 20 7 11 1011.7 - 0.0
19/10:00am 32.7 36.4 23.9 60 6.1 SW 11 15 6 8 1011.8 - 0.0
19/09:30am 32.3 35.8 23.5 59 6.1 S 11 17 6 9 1012.0 - 0.0
19/09:00am 31.7 35.2 23.5 62 5.7 SSW 11 19 6 10 1012.0 1011.4 0.0
19/08:30am 30.9 34.7 23.5 64 5.1 S 9 15 5 8 1011.9 - 0.0
19/08:00am 29.6 33.6 23.8 71 4.0 SW 9 13 5 7 1011.6 - 0.0
19/07:30am 29.1 33.5 24.4 76 3.3 WSW 9 15 5 8 1011.3 - 0.0
19/07:00am 28.5 34.4 24.1 77 3.1 CALM 0 0 0 0 1010.9 - 0.0
19/06:30am 27.4 33.5 24.5 84 2.0 CALM 0 0 0 0 1010.6 - 0.0
19/06:00am 26.8 32.9 24.5 87 1.6 CALM 0 0 0 0 1010.3 1009.7 0.0
19/05:30am 27.2 33.3 24.5 85 1.9 CALM 0 0 0 0 1009.8 - 0.0
19/05:00am 27.3 33.0 23.7 81 2.5 CALM 0 0 0 0 1009.2 - 0.0
19/04:30am 27.7 31.4 23.3 77 3.0 NNW 9 13 5 7 1008.9 - 0.0
19/04:00am 27.3 31.5 23.5 80 2.6 NNW 7 11 4 6 1008.6 - 0.0
19/03:30am 27.6 30.5 23.2 77 3.0 NNW 13 17 7 9 1008.6 - 0.0
19/03:00am 27.6 31.7 23.2 77 3.0 N 7 13 4 7 1008.8 1008.2 0.0
19/02:30am 27.2 31.4 23.4 80 2.6 NNE 7 9 4 5 1008.9 - 0.0
19/02:00am 27.4 32.4 23.2 78 2.9 NE 2 9 1 5 1009.3 - 0.0
19/01:30am 27.2 32.5 23.0 78 2.9 CALM 0 0 0 0 1009.7 - 0.0
19/01:00am 27.5 32.1 23.1 77 3.0 E 4 9 2 5 1010.1 - 0.0
19/12:30am 27.6 32.9 23.0 76 3.1 CALM 0 2 0 1 1010.2 - 0.0
19/12:00am 27.7 32.4 22.0 71 3.8 CALM 0 0 0 0 1010.3 1009.7 0.0
 
Date/Time
CST
Temp
°C
App
Temp
°C
Dew
Point
Rel
Hum
%
Delta-T
°C
Wind Press
QNH
hPa
Press
MSL
hPa
Rain
since 9 am
mm
Dir
 
Spd
km/h
Gust
km/h
Spd
kts
Gust
kts
18/11:30pm 27.9 32.3 22.1 70 3.9 WNW 2 6 1 3 1010.2 - 0.0
18/11:00pm 27.6 31.1 22.1 72 3.7 WNW 7 9 4 5 1010.2 - 0.0
18/10:30pm 27.5 30.6 22.2 73 3.6 WNW 9 13 5 7 1010.0 - 0.0
18/10:00pm 27.5 31.3 22.7 75 3.3 SW 7 13 4 7 1010.4 - 0.0
18/09:30pm 27.6 31.5 23.6 79 2.8 SW 9 11 5 6 1009.8 - 0.0
18/09:00pm 27.8 32.5 24.0 80 2.6 WSW 6 7 3 4 1009.4 1008.8 0.0
18/08:30pm 28.1 33.0 24.7 82 2.4 S 7 13 4 7 1009.4 - 0.0
18/08:00pm 28.2 33.5 24.4 80 2.6 SE 4 7 2 4 1008.5 - 0.0
18/07:30pm 28.5 32.3 24.1 77 3.1 S 11 15 6 8 1008.4 - 0.0

Other Formats:

Comma delimited format used in spreadsheet applications
http://www.bom.gov.au/fwo/IDD60801/IDD60801.94130.axf

JavaScript Object Notation format (JSON) in row-major order
http://www.bom.gov.au/fwo/IDD60801/IDD60801.94130.json